Bangor, ME

9:58 PM EDT on August 28, 2016 (GMT -0400)
Essex St Hill | | Change Station

Elev 208 ft 44.82 °N, 68.77 °W | Updated 6 seconds ago

Mostly Cloudy
Mostly Cloudy
65.8 °F
Feels Like 65.8 °F
N
0.0
Wind Variable Wind from SSW
Gusts 7.0 mph

Today
High -- | Low -- °F
--% Chance of Precip.
Yesterday
High -- | Low -- °F
Precip. -- in
Pressure 30.13 in
Visibility 10.0 miles
Clouds Mostly Cloudy 6500 ft
Dew Point 60 °F
Humidity 81%
Rainfall in
Snow Depth Not available.
5:53 AM 7:18 PM
Waning Crescent, 12% visible
METAR KBGR 290153Z 19010KT 10SM BKN065 18/16 A3014 RMK AO2 SLP203 T01830161
Pressure 30.13 in
Visibility 10.0 miles
Clouds Mostly Cloudy 6500 ft
Dew Point 60 °F
Humidity 81%
Rainfall in
Snow Depth Not available.
5:53 AM 7:18 PM
Waning Crescent, 12% visible
METAR KBGR 290153Z 19010KT 10SM BKN065 18/16 A3014 RMK AO2 SLP203 T01830161

10-Day Weather Forecast

Almanac

Astronomy

Aug. 28, 2016 Rise Set
Actual Time
Civil Twilight
Nautical Twilight
Astronomical Twilight
Moon
Length of Visible Light
Length of Day
Tomorrow will be .
, % of the Moon is Illuminated

Today's Extremes

State Highs State Lows

Community

WunderPhotos

Upload Photos

1,935,757 photos uploaded!

WunderBlog® & News

Nearby

Air Quality

  Air Quality AQ Index Pollutant
Not available.

Snow Depth

Station Depth Elevation

Earthquake Activity

City Distance Mag. Time & Date
Minimum magnitude displayed is 2.5.

Coastal Water Temperatures

Place Temperature

Stations

Nearby Weather Stations

Station Location Temp. Windchill Dew Point Humidity Wind Precip. Elev Updated Type
                   

Watches & Warnings

There are currently no watches in effect.